Time,TemperatureF,DewpointF,PressureIn,WindDirection,WindDirectionDegrees,WindSpeedMPH,WindSpeedGustMPH,Humidity,HourlyPrecipIn,Conditions,Clouds,dailyrainin,SoftwareType,DateUTC
2013-10-13 00:07:00,40.5,30.4,30.15,WNW,283,0.0,4.0,67,0.00,,,-99.99,Weather View 32 v70,2013-10-13 05:07:00,
2013-10-13 00:16:00,40.5,30.4,30.15,WNW,283,0.0,4.0,67,0.00,,,-99.99,Weather View 32 v70,2013-10-13 05:16:00,
2013-10-13 00:22:00,40.6,30.9,30.15,WNW,283,0.0,4.0,68,0.00,,,-99.99,Weather View 32 v70,2013-10-13 05:22:00,
2013-10-13 00:26:00,40.6,30.9,30.15,WNW,283,0.0,4.0,68,0.00,,,-99.99,Weather View 32 v70,2013-10-13 05:26:00,
2013-10-13 00:32:00,40.6,30.9,30.15,WNW,283,0.0,4.0,68,0.00,,,-99.99,Weather View 32 v70,2013-10-13 05:32:00,
2013-10-13 00:36:00,40.5,31.1,30.15,WNW,283,0.0,4.0,69,0.00,,,-99.99,Weather View 32 v70,2013-10-13 05:36:00,
2013-10-13 00:41:00,40.5,31.1,30.15,WNW,283,0.0,4.0,69,0.00,,,-99.99,Weather View 32 v70,2013-10-13 05:41:00,
2013-10-13 00:51:00,40.3,30.9,30.18,WNW,283,0.0,4.0,69,0.00,,,-99.99,Weather View 32 v70,2013-10-13 05:51:00,
2013-10-13 01:01:00,40.3,31.3,30.18,WNW,283,0.0,4.0,70,0.00,,,-99.99,Weather View 32 v70,2013-10-13 06:01:00,
2013-10-13 01:06:00,40.3,31.3,30.18,WNW,283,0.0,4.0,70,0.00,,,-99.99,Weather View 32 v70,2013-10-13 06:06:00,
2013-10-13 01:17:00,40.1,31.1,30.18,WNW,283,0.0,4.0,70,0.00,,,-99.99,Weather View 32 v70,2013-10-13 06:17:00,
2013-10-13 01:26:00,39.9,30.9,30.18,WNW,283,0.0,0.0,70,0.00,,,-99.99,Weather View 32 v70,2013-10-13 06:26:00,
2013-10-13 01:36:00,39.7,30.7,30.18,WNW,283,0.0,0.0,70,0.00,,,-99.99,Weather View 32 v70,2013-10-13 06:36:00,
2013-10-13 01:46:00,39.6,30.9,30.18,WNW,283,0.0,0.0,71,0.00,,,-99.99,Weather View 32 v70,2013-10-13 06:46:00,
2013-10-13 01:51:00,39.6,30.9,30.18,WNW,283,0.0,0.0,71,0.00,,,-99.99,Weather View 32 v70,2013-10-13 06:51:00,
2013-10-13 01:56:00,39.4,30.8,30.18,WNW,283,0.0,0.0,71,0.00,,,-99.99,Weather View 32 v70,2013-10-13 06:56:00,
2013-10-13 02:06:00,39.4,30.8,30.18,WNW,283,0.0,0.0,71,0.00,,,-99.99,Weather View 32 v70,2013-10-13 07:06:00,
2013-10-13 02:11:00,39.4,31.1,30.18,WNW,283,0.0,0.0,72,0.00,,,-99.99,Weather View 32 v70,2013-10-13 07:11:00,
2013-10-13 02:17:00,39.4,31.1,30.21,WNW,283,0.0,0.0,72,0.00,,,-99.99,Weather View 32 v70,2013-10-13 07:17:00,
2013-10-13 02:22:00,39.2,30.9,30.21,WNW,283,0.0,0.0,72,0.00,,,-99.99,Weather View 32 v70,2013-10-13 07:22:00,
2013-10-13 02:27:00,39.0,30.8,30.21,WNW,283,0.0,0.0,72,0.00,,,-99.99,Weather View 32 v70,2013-10-13 07:27:00,
2013-10-13 02:32:00,39.0,31.1,30.21,WNW,283,0.0,0.0,73,0.00,,,-99.99,Weather View 32 v70,2013-10-13 07:32:00,
2013-10-13 02:42:00,39.2,31.3,30.21,WNW,283,0.0,0.0,73,0.00,,,-99.99,Weather View 32 v70,2013-10-13 07:42:00,
2013-10-13 02:52:00,39.0,31.1,30.21,WNW,283,0.0,0.0,73,0.00,,,-99.99,Weather View 32 v70,2013-10-13 07:52:00,
2013-10-13 02:57:00,39.2,31.3,30.21,WNW,283,0.0,3.0,73,0.00,,,-99.99,Weather View 32 v70,2013-10-13 07:57:00,
2013-10-13 03:02:00,39.4,31.4,30.21,WNW,284,0.0,4.0,73,0.00,,,-99.99,Weather View 32 v70,2013-10-13 08:02:00,
2013-10-13 03:12:00,39.4,31.4,30.21,WNW,284,0.0,4.0,73,0.00,,,-99.99,Weather View 32 v70,2013-10-13 08:12:00,
2013-10-13 03:17:00,39.2,31.3,30.24,WNW,284,0.0,4.0,73,0.00,,,-99.99,Weather View 32 v70,2013-10-13 08:17:00,
2013-10-13 03:26:00,39.2,31.6,30.24,WNW,284,0.0,4.0,74,0.00,,,-99.99,Weather View 32 v70,2013-10-13 08:26:00,
2013-10-13 03:31:00,39.0,31.4,30.24,WNW,284,0.0,4.0,74,0.00,,,-99.99,Weather View 32 v70,2013-10-13 08:31:00,
2013-10-13 03:36:00,39.0,31.4,30.24,WNW,284,0.0,4.0,74,0.00,,,-99.99,Weather View 32 v70,2013-10-13 08:36:00,
2013-10-13 03:46:00,38.8,31.3,30.24,WNW,284,0.0,4.0,74,0.00,,,-99.99,Weather View 32 v70,2013-10-13 08:46:00,
2013-10-13 03:51:00,38.8,31.6,30.24,WNW,284,0.0,4.0,75,0.00,,,-99.99,Weather View 32 v70,2013-10-13 08:51:00,
2013-10-13 04:01:00,38.7,31.4,30.24,WNW,284,0.0,3.0,75,0.00,,,-99.99,Weather View 32 v70,2013-10-13 09:01:00,
2013-10-13 04:06:00,38.7,31.4,30.24,WNW,284,0.0,3.0,75,0.00,,,-99.99,Weather View 32 v70,2013-10-13 09:06:00,
2013-10-13 04:11:00,38.7,31.4,30.24,WNW,284,0.0,3.0,75,0.00,,,-99.99,Weather View 32 v70,2013-10-13 09:11:00,
2013-10-13 04:18:00,38.5,31.2,30.24,WNW,284,0.0,3.0,75,0.00,,,-99.99,Weather View 32 v70,2013-10-13 09:18:00,
2013-10-13 04:26:00,38.5,31.2,30.24,WNW,284,0.0,2.0,75,0.00,,,-99.99,Weather View 32 v70,2013-10-13 09:26:00,
2013-10-13 04:36:00,38.1,30.9,30.24,WNW,284,0.0,2.0,75,0.00,,,-99.99,Weather View 32 v70,2013-10-13 09:36:00,
2013-10-13 04:41:00,37.9,30.7,30.24,WNW,283,0.0,2.0,75,0.00,,,-99.99,Weather View 32 v70,2013-10-13 09:41:00,
2013-10-13 04:51:00,37.8,30.9,30.27,WNW,284,0.0,0.0,76,0.00,,,-99.99,Weather View 32 v70,2013-10-13 09:51:00,
2013-10-13 05:01:00,37.9,31.0,30.27,WNW,284,0.0,2.0,76,0.00,,,-99.99,Weather View 32 v70,2013-10-13 10:01:00,
2013-10-13 05:06:00,37.9,31.0,30.27,WNW,284,0.0,2.0,76,0.00,,,-99.99,Weather View 32 v70,2013-10-13 10:06:00,
2013-10-13 05:16:00,37.9,31.0,30.27,WNW,284,0.0,2.0,76,0.00,,,-99.99,Weather View 32 v70,2013-10-13 10:16:00,
2013-10-13 05:22:00,37.8,30.9,30.27,WNW,284,0.0,2.0,76,0.00,,,-99.99,Weather View 32 v70,2013-10-13 10:22:00,
2013-10-13 05:27:00,37.6,30.7,30.27,WNW,284,0.0,2.0,76,0.00,,,-99.99,Weather View 32 v70,2013-10-13 10:27:00,
2013-10-13 05:32:00,37.2,30.3,30.27,WNW,284,0.0,2.0,76,0.00,,,-99.99,Weather View 32 v70,2013-10-13 10:32:00,
2013-10-13 05:42:00,36.7,29.8,30.27,WNW,284,0.0,2.0,76,0.00,,,-99.99,Weather View 32 v70,2013-10-13 10:42:00,
2013-10-13 05:47:00,36.7,29.8,30.27,WNW,284,0.0,2.0,76,0.00,,,-99.99,Weather View 32 v70,2013-10-13 10:47:00,
2013-10-13 05:57:00,36.3,29.8,30.27,WNW,284,0.0,2.0,77,0.00,,,-99.99,Weather View 32 v70,2013-10-13 10:57:00,
2013-10-13 06:07:00,36.7,30.1,30.27,WNW,284,0.0,0.0,77,0.00,,,-99.99,Weather View 32 v70,2013-10-13 11:07:00,
2013-10-13 06:12:00,36.7,30.1,30.27,WNW,284,0.0,0.0,77,0.00,,,-99.99,Weather View 32 v70,2013-10-13 11:12:00,
2013-10-13 06:20:00,36.9,30.6,30.27,WNW,284,0.0,0.0,78,0.00,,,-99.99,Weather View 32 v70,2013-10-13 11:20:00,
2013-10-13 06:26:00,36.9,30.6,30.27,WNW,284,0.0,0.0,78,0.00,,,-99.99,Weather View 32 v70,2013-10-13 11:26:00,
2013-10-13 06:31:00,36.7,30.5,30.27,WNW,284,0.0,0.0,78,0.00,,,-99.99,Weather View 32 v70,2013-10-13 11:31:00,
2013-10-13 06:36:00,36.5,30.3,30.27,WNW,284,0.0,0.0,78,0.00,,,-99.99,Weather View 32 v70,2013-10-13 11:36:00,
2013-10-13 06:46:00,36.3,30.1,30.30,WNW,283,0.0,0.0,78,0.00,,,-99.99,Weather View 32 v70,2013-10-13 11:46:00,
2013-10-13 06:51:00,36.1,29.9,30.30,WNW,284,0.0,0.0,78,0.00,,,-99.99,Weather View 32 v70,2013-10-13 11:51:00,
2013-10-13 06:56:00,36.1,29.9,30.30,WNW,284,0.0,0.0,78,0.00,,,-99.99,Weather View 32 v70,2013-10-13 11:56:00,
2013-10-13 07:06:00,36.1,29.9,30.30,WNW,284,0.0,0.0,78,0.00,,,-99.99,Weather View 32 v70,2013-10-13 12:06:00,
2013-10-13 07:16:00,35.8,29.9,30.30,WNW,284,0.0,0.0,79,0.00,,,-99.99,Weather View 32 v70,2013-10-13 12:16:00,
2013-10-13 07:26:00,35.6,29.7,30.30,WNW,284,0.0,0.0,79,0.00,,,-99.99,Weather View 32 v70,2013-10-13 12:26:00,
2013-10-13 07:31:00,35.6,29.7,30.30,WNW,284,0.0,0.0,79,0.00,,,-99.99,Weather View 32 v70,2013-10-13 12:31:00,
2013-10-13 07:41:00,35.4,29.6,30.30,WNW,284,0.0,0.0,79,0.00,,,-99.99,Weather View 32 v70,2013-10-13 12:41:00,
2013-10-13 07:46:00,35.2,29.4,30.30,WNW,284,0.0,0.0,79,0.00,,,-99.99,Weather View 32 v70,2013-10-13 12:46:00,
2013-10-13 07:56:00,34.9,29.0,30.30,WNW,284,0.0,0.0,79,0.00,,,-99.99,Weather View 32 v70,2013-10-13 12:56:00,
2013-10-13 08:01:00,34.7,29.2,30.30,WNW,284,0.0,0.0,80,0.00,,,-99.99,Weather View 32 v70,2013-10-13 13:01:00,
2013-10-13 08:11:00,34.5,29.0,30.30,WNW,284,0.0,0.0,80,0.00,,,-99.99,Weather View 32 v70,2013-10-13 13:11:00,
2013-10-13 08:21:00,34.5,29.0,30.33,WNW,283,0.0,0.0,80,0.00,,,-99.99,Weather View 32 v70,2013-10-13 13:21:00,
2013-10-13 08:27:00,34.7,29.5,30.33,WNW,284,0.0,0.0,81,0.00,,,-99.99,Weather View 32 v70,2013-10-13 13:27:00,
2013-10-13 08:37:00,34.9,29.6,30.33,WNW,284,0.0,0.0,81,0.00,,,-99.99,Weather View 32 v70,2013-10-13 13:37:00,
2013-10-13 08:42:00,35.1,30.1,30.33,WNW,284,0.0,0.0,82,0.00,,,-99.99,Weather View 32 v70,2013-10-13 13:42:00,
2013-10-13 08:47:00,35.4,30.5,30.33,WNW,284,0.0,0.0,82,0.00,,,-99.99,Weather View 32 v70,2013-10-13 13:47:00,
2013-10-13 08:57:00,36.1,31.2,30.33,WNW,284,0.0,0.0,82,0.00,,,-99.99,Weather View 32 v70,2013-10-13 13:57:00,
2013-10-13 09:07:00,37.0,32.4,30.33,WNW,284,0.0,0.0,83,0.00,,,-99.99,Weather View 32 v70,2013-10-13 14:07:00,
2013-10-13 09:17:00,37.9,33.5,30.33,WNW,284,0.0,0.0,84,0.00,,,-99.99,Weather View 32 v70,2013-10-13 14:17:00,
2013-10-13 09:22:00,38.5,34.1,30.33,WNW,284,0.0,0.0,84,0.00,,,-99.99,Weather View 32 v70,2013-10-13 14:22:00,
2013-10-13 09:27:00,39.0,34.9,30.33,WNW,284,0.0,0.0,85,0.00,,,-99.99,Weather View 32 v70,2013-10-13 14:27:00,
2013-10-13 09:36:00,40.5,36.3,30.33,WNW,284,2.0,3.0,85,0.00,,,-99.99,Weather View 32 v70,2013-10-13 14:36:00,
2013-10-13 09:41:00,41.5,37.7,30.33,SE,140,0.0,4.0,86,0.00,,,-99.99,Weather View 32 v70,2013-10-13 14:41:00,
2013-10-13 09:46:00,42.4,38.5,30.36,SE,130,0.0,4.0,86,0.00,,,-99.99,Weather View 32 v70,2013-10-13 14:46:00,
2013-10-13 09:56:00,43.3,39.4,30.36,SSE,155,0.0,4.0,86,0.00,,,-99.99,Weather View 32 v70,2013-10-13 14:56:00,
2013-10-13 10:02:00,43.3,39.1,30.36,SE,143,3.0,4.0,85,0.00,,,-99.99,Weather View 32 v70,2013-10-13 15:02:00,
2013-10-13 10:11:00,43.7,38.6,30.36,SE,139,0.0,4.0,82,0.00,,,-99.99,Weather View 32 v70,2013-10-13 15:11:00,
2013-10-13 10:21:00,44.4,38.0,30.36,SE,139,0.0,4.0,78,0.00,,,-99.99,Weather View 32 v70,2013-10-13 15:21:00,
2013-10-13 10:26:00,45.0,37.8,30.36,SSE,154,3.0,4.0,76,0.00,,,-99.99,Weather View 32 v70,2013-10-13 15:26:00,
2013-10-13 10:31:00,45.5,37.7,30.36,SE,145,0.0,4.0,74,0.00,,,-99.99,Weather View 32 v70,2013-10-13 15:31:00,
2013-10-13 10:41:00,46.4,37.1,30.36,SE,145,0.0,4.0,70,0.00,,,-99.99,Weather View 32 v70,2013-10-13 15:41:00,
2013-10-13 10:46:00,46.8,37.1,30.36,SE,146,0.0,4.0,69,0.00,,,-99.99,Weather View 32 v70,2013-10-13 15:46:00,
2013-10-13 10:56:00,47.7,37.2,30.36,SE,145,0.0,4.0,67,0.00,,,-99.99,Weather View 32 v70,2013-10-13 15:56:00,
2013-10-13 11:06:00,48.7,37.1,30.36,SE,144,0.0,4.0,64,0.00,,,-99.99,Weather View 32 v70,2013-10-13 16:06:00,
2013-10-13 11:17:00,50.4,36.5,30.36,South,178,0.0,4.0,59,0.00,,,-99.99,Weather View 32 v70,2013-10-13 16:17:00,
2013-10-13 11:23:00,50.9,35.7,30.36,South,169,0.0,4.0,56,0.00,,,-99.99,Weather View 32 v70,2013-10-13 16:23:00,
2013-10-13 11:32:00,51.8,33.7,30.36,WNW,287,0.0,5.0,50,0.00,,,-99.99,Weather View 32 v70,2013-10-13 16:32:00,
2013-10-13 11:37:00,52.2,34.0,30.36,SE,129,3.0,5.0,50,0.00,,,-99.99,Weather View 32 v70,2013-10-13 16:37:00,
2013-10-13 11:42:00,52.5,33.4,30.36,South,169,4.0,5.0,48,0.00,,,-99.99,Weather View 32 v70,2013-10-13 16:42:00,
2013-10-13 11:47:00,52.9,33.7,30.36,SE,143,3.0,5.0,48,0.00,,,-99.99,Weather View 32 v70,2013-10-13 16:47:00,
2013-10-13 11:57:00,54.5,35.7,30.36,SSW,212,0.0,5.0,49,0.00,,,-99.99,Weather View 32 v70,2013-10-13 16:57:00,
2013-10-13 12:02:00,55.0,36.2,30.36,SW,223,0.0,5.0,49,0.00,,,-99.99,Weather View 32 v70,2013-10-13 17:02:00,
2013-10-13 12:12:00,55.9,34.9,30.36,SSW,193,0.0,5.0,45,0.00,,,-99.99,Weather View 32 v70,2013-10-13 17:12:00,
2013-10-13 12:22:00,56.8,33.9,30.36,South,175,0.0,6.0,42,0.00,,,-99.99,Weather View 32 v70,2013-10-13 17:22:00,
2013-10-13 12:27:00,56.8,34.5,30.36,South,180,0.0,6.0,43,0.00,,,-99.99,Weather View 32 v70,2013-10-13 17:27:00,
2013-10-13 12:36:00,57.7,33.5,30.36,SSW,195,4.0,6.0,40,0.00,,,-99.99,Weather View 32 v70,2013-10-13 17:36:00,
2013-10-13 12:41:00,57.7,32.9,30.36,SSW,194,5.0,6.0,39,0.00,,,-99.99,Weather View 32 v70,2013-10-13 17:41:00,
2013-10-13 12:51:00,58.5,32.2,30.36,SSE,147,3.0,6.0,37,0.00,,,-99.99,Weather View 32 v70,2013-10-13 17:51:00,
2013-10-13 12:56:00,58.6,32.4,30.36,WNW,294,3.0,6.0,37,0.00,,,-99.99,Weather View 32 v70,2013-10-13 17:56:00,
2013-10-13 13:06:00,58.6,31.7,30.36,SSE,164,3.0,6.0,36,0.00,,,-99.99,Weather View 32 v70,2013-10-13 18:06:00,
2013-10-13 13:16:00,59.4,31.6,30.33,WNW,293,3.0,8.0,35,0.00,,,-99.99,Weather View 32 v70,2013-10-13 18:16:00,
2013-10-13 13:23:00,59.7,32.0,30.33,SE,133,5.0,8.0,35,0.00,,,-99.99,Weather View 32 v70,2013-10-13 18:23:00,
2013-10-13 13:31:00,59.9,32.1,30.33,WSW,253,0.0,8.0,35,0.00,,,-99.99,Weather View 32 v70,2013-10-13 18:31:00,
2013-10-13 13:36:00,59.5,31.8,30.33,NW,310,4.0,8.0,35,0.00,,,-99.99,Weather View 32 v70,2013-10-13 18:36:00,
2013-10-13 13:46:00,59.4,31.6,30.33,SE,128,0.0,8.0,35,0.00,,,-99.99,Weather View 32 v70,2013-10-13 18:46:00,
2013-10-13 13:56:00,60.8,32.2,30.33,NW,310,3.0,8.0,34,0.00,,,-99.99,Weather View 32 v70,2013-10-13 18:56:00,
2013-10-13 14:06:00,60.4,32.6,30.33,West,268,0.0,8.0,35,0.00,,,-99.99,Weather View 32 v70,2013-10-13 19:06:00,
2013-10-13 14:17:00,60.8,32.2,30.33,SE,139,6.0,8.0,34,0.00,,,-99.99,Weather View 32 v70,2013-10-13 19:17:00,
2013-10-13 14:25:00,60.4,31.9,30.33,SE,145,4.0,8.0,34,0.00,,,-99.99,Weather View 32 v70,2013-10-13 19:25:00,
2013-10-13 14:32:00,59.7,32.0,30.33,South,170,0.0,8.0,35,0.00,,,-99.99,Weather View 32 v70,2013-10-13 19:32:00,
2013-10-13 14:37:00,60.3,32.4,30.33,South,176,5.0,8.0,35,0.00,,,-99.99,Weather View 32 v70,2013-10-13 19:37:00,
2013-10-13 14:47:00,61.0,32.4,30.33,SSE,165,3.0,9.0,34,0.00,,,-99.99,Weather View 32 v70,2013-10-13 19:47:00,
2013-10-13 14:52:00,61.2,32.5,30.33,SSE,148,3.0,9.0,34,0.00,,,-99.99,Weather View 32 v70,2013-10-13 19:52:00,
2013-10-13 15:02:00,61.3,32.7,30.30,SE,139,4.0,9.0,34,0.00,,,-99.99,Weather View 32 v70,2013-10-13 20:02:00,
2013-10-13 15:12:00,61.5,32.8,30.30,SE,139,3.0,9.0,34,0.00,,,-99.99,Weather View 32 v70,2013-10-13 20:12:00,
2013-10-13 15:22:00,60.8,32.2,30.30,SE,140,3.0,9.0,34,0.00,,,-99.99,Weather View 32 v70,2013-10-13 20:22:00,
2013-10-13 15:27:00,60.8,31.5,30.30,SE,144,4.0,9.0,33,0.00,,,-99.99,Weather View 32 v70,2013-10-13 20:27:00,
2013-10-13 15:32:00,60.6,31.3,30.30,SE,142,0.0,9.0,33,0.00,,,-99.99,Weather View 32 v70,2013-10-13 20:32:00,
2013-10-13 15:41:00,60.1,31.6,30.30,South,187,4.0,9.0,34,0.00,,,-99.99,Weather View 32 v70,2013-10-13 20:41:00,
2013-10-13 15:46:00,59.7,31.2,30.30,SE,138,2.0,9.0,34,0.00,,,-99.99,Weather View 32 v70,2013-10-13 20:46:00,
2013-10-13 15:56:00,59.5,31.1,30.30,SE,143,0.0,6.0,34,0.00,,,-99.99,Weather View 32 v70,2013-10-13 20:56:00,
2013-10-13 16:06:00,59.4,30.2,30.30,South,186,0.0,6.0,33,0.00,,,-99.99,Weather View 32 v70,2013-10-13 21:06:00,
2013-10-13 16:11:00,59.4,30.2,30.30,SSE,148,0.0,6.0,33,0.00,,,-99.99,Weather View 32 v70,2013-10-13 21:11:00,
2013-10-13 16:21:00,59.0,29.1,30.30,SSE,156,5.0,7.0,32,0.00,,,-99.99,Weather View 32 v70,2013-10-13 21:21:00,
2013-10-13 16:31:00,58.8,29.0,30.30,SSE,161,4.0,7.0,32,0.00,,,-99.99,Weather View 32 v70,2013-10-13 21:31:00,
2013-10-13 16:41:00,58.6,28.0,30.30,South,185,3.0,7.0,31,0.00,,,-99.99,Weather View 32 v70,2013-10-13 21:41:00,
2013-10-13 16:51:00,58.3,28.5,30.30,SSE,164,3.0,7.0,32,0.00,,,-99.99,Weather View 32 v70,2013-10-13 21:51:00,
2013-10-13 16:56:00,58.1,29.1,30.30,South,184,0.0,7.0,33,0.00,,,-99.99,Weather View 32 v70,2013-10-13 21:56:00,
2013-10-13 17:06:00,57.9,28.9,30.30,SSE,151,3.0,7.0,33,0.00,,,-99.99,Weather View 32 v70,2013-10-13 22:06:00,
2013-10-13 17:17:00,57.6,29.3,30.30,SSE,155,0.0,7.0,34,0.00,,,-99.99,Weather View 32 v70,2013-10-13 22:17:00,
2013-10-13 17:27:00,57.6,30.1,30.30,SSE,154,0.0,5.0,35,0.00,,,-99.99,Weather View 32 v70,2013-10-13 22:27:00,
2013-10-13 17:32:00,57.4,29.9,30.30,SE,135,3.0,5.0,35,0.00,,,-99.99,Weather View 32 v70,2013-10-13 22:32:00,
2013-10-13 17:37:00,57.2,29.7,30.30,SE,135,0.0,5.0,35,0.00,,,-99.99,Weather View 32 v70,2013-10-13 22:37:00,
2013-10-13 17:47:00,56.8,30.1,30.30,SE,141,0.0,5.0,36,0.00,,,-99.99,Weather View 32 v70,2013-10-13 22:47:00,
2013-10-13 17:52:00,56.7,30.0,30.30,SE,142,0.0,5.0,36,0.00,,,-99.99,Weather View 32 v70,2013-10-13 22:52:00,
2013-10-13 18:02:00,56.5,29.8,30.30,SE,143,0.0,5.0,36,0.00,,,-99.99,Weather View 32 v70,2013-10-13 23:02:00,
2013-10-13 18:07:00,56.3,29.6,30.30,SE,143,0.0,5.0,36,0.00,,,-99.99,Weather View 32 v70,2013-10-13 23:07:00,
2013-10-13 18:17:00,56.1,29.5,30.30,SE,143,0.0,5.0,36,0.00,,,-99.99,Weather View 32 v70,2013-10-13 23:17:00,
2013-10-13 18:27:00,55.9,29.3,30.30,SE,142,0.0,4.0,36,0.00,,,-99.99,Weather View 32 v70,2013-10-13 23:27:00,
2013-10-13 18:36:00,55.6,29.0,30.30,SE,143,0.0,4.0,36,0.00,,,-99.99,Weather View 32 v70,2013-10-13 23:36:00,
2013-10-13 18:41:00,55.4,29.5,30.30,SE,143,0.0,4.0,37,0.00,,,-99.99,Weather View 32 v70,2013-10-13 23:41:00,
2013-10-13 18:51:00,55.0,29.8,30.30,SE,143,0.0,4.0,38,0.00,,,-99.99,Weather View 32 v70,2013-10-13 23:51:00,
2013-10-13 19:01:00,54.5,29.4,30.27,SE,143,0.0,4.0,38,0.00,,,-99.99,Weather View 32 v70,2013-10-14 00:01:00,
2013-10-13 19:11:00,54.0,28.9,30.27,SE,143,0.0,3.0,38,0.00,,,-99.99,Weather View 32 v70,2013-10-14 00:11:00,
2013-10-13 19:16:00,53.6,29.2,30.30,SE,143,0.0,3.0,39,0.00,,,-99.99,Weather View 32 v70,2013-10-14 00:16:00,
2013-10-13 19:26:00,53.2,29.5,30.30,SE,143,0.0,0.0,40,0.00,,,-99.99,Weather View 32 v70,2013-10-14 00:26:00,
2013-10-13 19:31:00,53.1,29.3,30.30,SE,143,0.0,0.0,40,0.00,,,-99.99,Weather View 32 v70,2013-10-14 00:31:00,
2013-10-13 19:41:00,53.1,29.9,30.30,SE,143,0.0,0.0,41,0.00,,,-99.99,Weather View 32 v70,2013-10-14 00:41:00,
2013-10-13 19:51:00,53.1,30.5,30.30,SE,143,0.0,0.0,42,0.00,,,-99.99,Weather View 32 v70,2013-10-14 00:51:00,
2013-10-13 20:01:00,52.9,31.0,30.30,SE,143,0.0,0.0,43,0.00,,,-99.99,Weather View 32 v70,2013-10-14 01:01:00,
2013-10-13 20:11:00,52.5,31.8,30.30,SE,143,0.0,0.0,45,0.00,,,-99.99,Weather View 32 v70,2013-10-14 01:11:00,
2013-10-13 20:21:00,52.3,32.1,30.30,SE,143,0.0,0.0,46,0.00,,,-99.99,Weather View 32 v70,2013-10-14 01:21:00,
2013-10-13 20:26:00,52.3,32.1,30.30,SE,143,0.0,0.0,46,0.00,,,-99.99,Weather View 32 v70,2013-10-14 01:26:00,
2013-10-13 20:36:00,52.3,33.2,30.30,SE,143,0.0,2.0,48,0.00,,,-99.99,Weather View 32 v70,2013-10-14 01:36:00,
2013-10-13 20:46:00,52.3,33.7,30.30,SE,143,0.0,2.0,49,0.00,,,-99.99,Weather View 32 v70,2013-10-14 01:46:00,
2013-10-13 20:56:00,52.3,34.2,30.30,SE,133,0.0,3.0,50,0.00,,,-99.99,Weather View 32 v70,2013-10-14 01:56:00,
2013-10-13 21:06:00,52.2,35.0,30.30,SE,134,0.0,3.0,52,0.00,,,-99.99,Weather View 32 v70,2013-10-14 02:06:00,
2013-10-13 21:17:00,51.6,35.0,30.30,SE,134,0.0,3.0,53,0.00,,,-99.99,Weather View 32 v70,2013-10-14 02:17:00,
2013-10-13 21:27:00,51.3,35.2,30.30,SE,134,0.0,3.0,54,0.00,,,-99.99,Weather View 32 v70,2013-10-14 02:27:00,
2013-10-13 21:32:00,51.1,35.0,30.30,SE,134,0.0,3.0,54,0.00,,,-99.99,Weather View 32 v70,2013-10-14 02:32:00,
2013-10-13 21:42:00,50.7,35.1,30.30,SE,134,0.0,3.0,55,0.00,,,-99.99,Weather View 32 v70,2013-10-14 02:42:00,
2013-10-13 21:52:00,50.4,35.2,30.30,SE,134,0.0,3.0,56,0.00,,,-99.99,Weather View 32 v70,2013-10-14 02:52:00,
2013-10-13 22:02:00,50.2,35.5,30.33,SE,134,0.0,0.0,57,0.00,,,-99.99,Weather View 32 v70,2013-10-14 03:02:00,
2013-10-13 22:12:00,49.8,35.6,30.33,SE,134,0.0,0.0,58,0.00,,,-99.99,Weather View 32 v70,2013-10-14 03:12:00,
2013-10-13 22:22:00,50.0,36.6,30.33,SE,134,0.0,0.0,60,0.00,,,-99.99,Weather View 32 v70,2013-10-14 03:22:00,
2013-10-13 22:27:00,50.2,37.2,30.33,SE,134,0.0,0.0,61,0.00,,,-99.99,Weather View 32 v70,2013-10-14 03:27:00,
2013-10-13 22:32:00,50.2,37.6,30.33,SE,134,0.0,0.0,62,0.00,,,-99.99,Weather View 32 v70,2013-10-14 03:32:00,
2013-10-13 22:41:00,50.4,37.8,30.33,SE,134,0.0,0.0,62,0.00,,,-99.99,Weather View 32 v70,2013-10-14 03:41:00,
2013-10-13 22:51:00,50.7,38.2,30.33,SE,134,0.0,0.0,62,0.00,,,-99.99,Weather View 32 v70,2013-10-14 03:51:00,
2013-10-13 23:01:00,50.7,37.7,30.33,SE,134,0.0,0.0,61,0.00,,,-99.99,Weather View 32 v70,2013-10-14 04:01:00,
2013-10-13 23:06:00,50.7,37.7,30.33,SE,134,0.0,0.0,61,0.00,,,-99.99,Weather View 32 v70,2013-10-14 04:06:00,
2013-10-13 23:11:00,50.5,38.0,30.33,SE,134,0.0,0.0,62,0.00,,,-99.99,Weather View 32 v70,2013-10-14 04:11:00,
2013-10-13 23:16:00,50.5,38.0,30.33,SE,134,0.0,0.0,62,0.00,,,-99.99,Weather View 32 v70,2013-10-14 04:16:00,
2013-10-13 23:21:00,50.5,38.4,30.33,SE,134,0.0,0.0,63,0.00,,,-99.99,Weather View 32 v70,2013-10-14 04:21:00,
2013-10-13 23:26:00,50.4,38.2,30.33,SE,134,0.0,0.0,63,0.00,,,-99.99,Weather View 32 v70,2013-10-14 04:26:00,
2013-10-13 23:36:00,50.4,37.8,30.33,SE,136,0.0,3.0,62,0.00,,,-99.99,Weather View 32 v70,2013-10-14 04:36:00,
2013-10-13 23:46:00,50.4,37.8,30.33,SE,144,0.0,3.0,62,0.00,,,-99.99,Weather View 32 v70,2013-10-14 04:46:00,
2013-10-13 23:51:00,50.2,37.6,30.33,SE,145,0.0,3.0,62,0.00,,,-99.99,Weather View 32 v70,2013-10-14 04:51:00,
2013-10-13 23:56:00,50.2,37.6,30.33,ESE,117,0.0,3.0,62,0.00,,,-99.99,Weather View 32 v70,2013-10-14 04:56:00,